sensor_id;sensor_type;location;lat;lon;timestamp;P1;durP1;ratioP1;P2;durP2;ratioP2
53263;SDS011;39153;52.680;6.172;2023-05-10T00:02:08;19.67;;;13.68;;
53263;SDS011;39153;52.680;6.172;2023-05-10T00:04:34;19.77;;;13.43;;
53263;SDS011;39153;52.680;6.172;2023-05-10T00:07:00;19.67;;;13.75;;
53263;SDS011;39153;52.680;6.172;2023-05-10T00:09:26;19.20;;;12.35;;
53263;SDS011;39153;52.680;6.172;2023-05-10T00:11:52;16.83;;;11.82;;
53263;SDS011;39153;52.680;6.172;2023-05-10T00:14:18;17.58;;;11.50;;
53263;SDS011;39153;52.680;6.172;2023-05-10T00:16:43;16.25;;;11.35;;
53263;SDS011;39153;52.680;6.172;2023-05-10T00:19:09;14.50;;;10.60;;
53263;SDS011;39153;52.680;6.172;2023-05-10T00:21:35;14.80;;;12.23;;
53263;SDS011;39153;52.680;6.172;2023-05-10T00:24:01;14.18;;;11.77;;
53263;SDS011;39153;52.680;6.172;2023-05-10T00:26:27;15.32;;;9.80;;
53263;SDS011;39153;52.680;6.172;2023-05-10T00:28:52;18.13;;;9.88;;
53263;SDS011;39153;52.680;6.172;2023-05-10T00:31:18;14.43;;;9.90;;
53263;SDS011;39153;52.680;6.172;2023-05-10T00:33:44;13.48;;;9.85;;
53263;SDS011;39153;52.680;6.172;2023-05-10T00:36:09;14.68;;;10.07;;
53263;SDS011;39153;52.680;6.172;2023-05-10T00:38:35;14.75;;;10.40;;
53263;SDS011;39153;52.680;6.172;2023-05-10T00:41:01;14.15;;;10.18;;
53263;SDS011;39153;52.680;6.172;2023-05-10T00:43:26;16.25;;;10.73;;
53263;SDS011;39153;52.680;6.172;2023-05-10T00:45:52;15.07;;;11.35;;
53263;SDS011;39153;52.680;6.172;2023-05-10T00:48:18;13.77;;;9.35;;
53263;SDS011;39153;52.680;6.172;2023-05-10T00:50:44;12.38;;;9.13;;
53263;SDS011;39153;52.680;6.172;2023-05-10T00:53:10;15.38;;;9.48;;
53263;SDS011;39153;52.680;6.172;2023-05-10T00:55:36;12.15;;;8.80;;
53263;SDS011;39153;52.680;6.172;2023-05-10T00:58:02;10.73;;;8.07;;
53263;SDS011;39153;52.680;6.172;2023-05-10T01:00:28;13.18;;;8.40;;
53263;SDS011;39153;52.680;6.172;2023-05-10T01:02:54;10.38;;;7.55;;
53263;SDS011;39153;52.680;6.172;2023-05-10T01:05:20;11.00;;;7.65;;
53263;SDS011;39153;52.680;6.172;2023-05-10T01:07:46;10.63;;;9.10;;
53263;SDS011;39153;52.680;6.172;2023-05-10T01:10:13;12.20;;;7.63;;
53263;SDS011;39153;52.680;6.172;2023-05-10T01:12:40;11.20;;;8.40;;
53263;SDS011;39153;52.680;6.172;2023-05-10T01:15:09;10.45;;;7.50;;
53263;SDS011;39153;52.680;6.172;2023-05-10T01:17:37;9.32;;;7.35;;
53263;SDS011;39153;52.680;6.172;2023-05-10T01:20:06;9.70;;;8.68;;
53263;SDS011;39153;52.680;6.172;2023-05-10T01:36:37;11.93;;;7.97;;
53263;SDS011;39153;52.680;6.172;2023-05-10T01:41:52;10.10;;;7.35;;
53263;SDS011;39153;52.680;6.172;2023-05-10T01:44:39;9.88;;;6.82;;
53263;SDS011;39153;52.680;6.172;2023-05-10T01:47:26;8.80;;;6.05;;
53263;SDS011;39153;52.680;6.172;2023-05-10T01:50:10;8.60;;;5.80;;
53263;SDS011;39153;52.680;6.172;2023-05-10T01:52:53;8.50;;;5.53;;
53263;SDS011;39153;52.680;6.172;2023-05-10T01:55:23;9.50;;;6.63;;
53263;SDS011;39153;52.680;6.172;2023-05-10T01:57:52;9.90;;;6.15;;
53263;SDS011;39153;52.680;6.172;2023-05-10T02:00:28;8.20;;;6.00;;
53263;SDS011;39153;52.680;6.172;2023-05-10T02:02:55;9.98;;;6.50;;
53263;SDS011;39153;52.680;6.172;2023-05-10T02:05:21;9.40;;;6.32;;
53263;SDS011;39153;52.680;6.172;2023-05-10T02:07:47;10.68;;;6.00;;
53263;SDS011;39153;52.680;6.172;2023-05-10T02:10:14;9.23;;;6.07;;
53263;SDS011;39153;52.680;6.172;2023-05-10T02:16:16;11.20;;;7.10;;
53263;SDS011;39153;52.680;6.172;2023-05-10T02:18:55;11.02;;;8.32;;
53263;SDS011;39153;52.680;6.172;2023-05-10T02:21:23;11.75;;;7.05;;
53263;SDS011;39153;52.680;6.172;2023-05-10T02:23:50;14.63;;;7.88;;
53263;SDS011;39153;52.680;6.172;2023-05-10T02:26:18;13.82;;;8.68;;
53263;SDS011;39153;52.680;6.172;2023-05-10T02:28:48;12.05;;;7.93;;
53263;SDS011;39153;52.680;6.172;2023-05-10T02:31:14;11.23;;;8.68;;
53263;SDS011;39153;52.680;6.172;2023-05-10T02:33:40;13.40;;;8.52;;
53263;SDS011;39153;52.680;6.172;2023-05-10T02:36:08;11.63;;;8.18;;
53263;SDS011;39153;52.680;6.172;2023-05-10T02:38:35;12.15;;;9.95;;
53263;SDS011;39153;52.680;6.172;2023-05-10T02:41:02;12.45;;;8.52;;
53263;SDS011;39153;52.680;6.172;2023-05-10T02:43:30;12.10;;;8.80;;
53263;SDS011;39153;52.680;6.172;2023-05-10T02:45:58;13.63;;;8.77;;
53263;SDS011;39153;52.680;6.172;2023-05-10T02:48:24;13.50;;;7.95;;
53263;SDS011;39153;52.680;6.172;2023-05-10T02:50:50;11.85;;;7.53;;
53263;SDS011;39153;52.680;6.172;2023-05-10T02:53:21;12.18;;;8.18;;
53263;SDS011;39153;52.680;6.172;2023-05-10T02:55:49;13.27;;;8.60;;
53263;SDS011;39153;52.680;6.172;2023-05-10T02:58:17;12.38;;;8.52;;
53263;SDS011;39153;52.680;6.172;2023-05-10T03:00:46;14.60;;;8.95;;
53263;SDS011;39153;52.680;6.172;2023-05-10T03:03:11;12.88;;;7.70;;
53263;SDS011;39153;52.680;6.172;2023-05-10T03:05:37;10.30;;;7.20;;
53263;SDS011;39153;52.680;6.172;2023-05-10T03:08:03;9.50;;;7.22;;
53263;SDS011;39153;52.680;6.172;2023-05-10T03:10:29;9.30;;;6.82;;
53263;SDS011;39153;52.680;6.172;2023-05-10T03:15:34;10.77;;;6.50;;
53263;SDS011;39153;52.680;6.172;2023-05-10T03:18:14;8.85;;;5.63;;
53263;SDS011;39153;52.680;6.172;2023-05-10T03:20:46;9.07;;;6.70;;
53263;SDS011;39153;52.680;6.172;2023-05-10T03:26:01;14.32;;;8.38;;
53263;SDS011;39153;52.680;6.172;2023-05-10T03:28:29;13.75;;;8.02;;
53263;SDS011;39153;52.680;6.172;2023-05-10T03:30:56;13.27;;;9.05;;
53263;SDS011;39153;52.680;6.172;2023-05-10T03:33:22;11.18;;;7.18;;
53263;SDS011;39153;52.680;6.172;2023-05-10T03:35:48;12.40;;;7.57;;
53263;SDS011;39153;52.680;6.172;2023-05-10T03:38:13;14.13;;;8.20;;
53263;SDS011;39153;52.680;6.172;2023-05-10T03:40:39;14.95;;;8.45;;
53263;SDS011;39153;52.680;6.172;2023-05-10T03:43:05;14.60;;;8.65;;
53263;SDS011;39153;52.680;6.172;2023-05-10T03:45:31;12.98;;;8.30;;
53263;SDS011;39153;52.680;6.172;2023-05-10T03:47:57;14.50;;;8.48;;
53263;SDS011;39153;52.680;6.172;2023-05-10T03:50:23;17.52;;;8.48;;
53263;SDS011;39153;52.680;6.172;2023-05-10T03:52:49;12.85;;;9.90;;
53263;SDS011;39153;52.680;6.172;2023-05-10T03:55:14;11.52;;;8.65;;
53263;SDS011;39153;52.680;6.172;2023-05-10T03:57:41;14.10;;;8.13;;
53263;SDS011;39153;52.680;6.172;2023-05-10T04:00:07;13.60;;;7.47;;
53263;SDS011;39153;52.680;6.172;2023-05-10T04:02:33;16.73;;;8.45;;
53263;SDS011;39153;52.680;6.172;2023-05-10T04:04:59;13.82;;;7.70;;
53263;SDS011;39153;52.680;6.172;2023-05-10T04:07:25;10.35;;;6.85;;
53263;SDS011;39153;52.680;6.172;2023-05-10T04:09:51;11.85;;;7.22;;
53263;SDS011;39153;52.680;6.172;2023-05-10T04:12:17;11.80;;;7.50;;
53263;SDS011;39153;52.680;6.172;2023-05-10T04:14:43;12.27;;;8.85;;
53263;SDS011;39153;52.680;6.172;2023-05-10T04:17:08;12.75;;;7.22;;
53263;SDS011;39153;52.680;6.172;2023-05-10T04:19:34;12.85;;;7.32;;
53263;SDS011;39153;52.680;6.172;2023-05-10T04:22:00;14.25;;;7.97;;
53263;SDS011;39153;52.680;6.172;2023-05-10T04:24:27;12.15;;;8.38;;
53263;SDS011;39153;52.680;6.172;2023-05-10T04:26:54;16.02;;;9.05;;
53263;SDS011;39153;52.680;6.172;2023-05-10T04:29:20;15.35;;;9.18;;
53263;SDS011;39153;52.680;6.172;2023-05-10T04:31:46;13.95;;;8.77;;
53263;SDS011;39153;52.680;6.172;2023-05-10T04:34:11;13.15;;;8.48;;
53263;SDS011;39153;52.680;6.172;2023-05-10T04:36:37;15.98;;;9.27;;
53263;SDS011;39153;52.680;6.172;2023-05-10T04:39:03;15.18;;;9.93;;
53263;SDS011;39153;52.680;6.172;2023-05-10T04:41:28;14.50;;;8.98;;
53263;SDS011;39153;52.680;6.172;2023-05-10T04:43:54;16.58;;;9.43;;
53263;SDS011;39153;52.680;6.172;2023-05-10T04:46:20;17.05;;;9.63;;
53263;SDS011;39153;52.680;6.172;2023-05-10T04:48:46;16.45;;;9.98;;
53263;SDS011;39153;52.680;6.172;2023-05-10T04:51:12;15.25;;;9.02;;
53263;SDS011;39153;52.680;6.172;2023-05-10T04:53:38;15.90;;;8.93;;
53263;SDS011;39153;52.680;6.172;2023-05-10T04:56:04;18.27;;;9.93;;
53263;SDS011;39153;52.680;6.172;2023-05-10T04:58:30;17.00;;;9.57;;
53263;SDS011;39153;52.680;6.172;2023-05-10T05:00:55;14.20;;;10.00;;
53263;SDS011;39153;52.680;6.172;2023-05-10T05:03:21;15.27;;;8.52;;
53263;SDS011;39153;52.680;6.172;2023-05-10T05:05:48;17.08;;;11.25;;
53263;SDS011;39153;52.680;6.172;2023-05-10T05:08:14;17.90;;;9.38;;
53263;SDS011;39153;52.680;6.172;2023-05-10T05:10:39;16.90;;;10.82;;
53263;SDS011;39153;52.680;6.172;2023-05-10T05:13:05;17.38;;;9.30;;
53263;SDS011;39153;52.680;6.172;2023-05-10T05:15:31;20.15;;;11.10;;
53263;SDS011;39153;52.680;6.172;2023-05-10T05:17:56;17.80;;;12.20;;
53263;SDS011;39153;52.680;6.172;2023-05-10T05:20:22;21.40;;;10.13;;
53263;SDS011;39153;52.680;6.172;2023-05-10T05:22:48;18.17;;;10.73;;
53263;SDS011;39153;52.680;6.172;2023-05-10T05:25:14;17.38;;;10.55;;
53263;SDS011;39153;52.680;6.172;2023-05-10T05:27:40;21.70;;;11.10;;
53263;SDS011;39153;52.680;6.172;2023-05-10T05:30:06;17.80;;;9.70;;
53263;SDS011;39153;52.680;6.172;2023-05-10T05:32:32;18.63;;;10.85;;
53263;SDS011;39153;52.680;6.172;2023-05-10T05:34:57;18.02;;;10.20;;
53263;SDS011;39153;52.680;6.172;2023-05-10T05:37:23;17.73;;;10.45;;
53263;SDS011;39153;52.680;6.172;2023-05-10T05:39:49;15.65;;;11.27;;
53263;SDS011;39153;52.680;6.172;2023-05-10T05:42:15;18.27;;;11.82;;
53263;SDS011;39153;52.680;6.172;2023-05-10T05:44:42;20.60;;;10.35;;
53263;SDS011;39153;52.680;6.172;2023-05-10T05:47:08;18.05;;;9.95;;
53263;SDS011;39153;52.680;6.172;2023-05-10T05:49:34;21.42;;;9.25;;
53263;SDS011;39153;52.680;6.172;2023-05-10T05:52:03;19.08;;;9.55;;
53263;SDS011;39153;52.680;6.172;2023-05-10T05:54:29;19.30;;;10.18;;
53263;SDS011;39153;52.680;6.172;2023-05-10T05:56:59;16.63;;;8.70;;
53263;SDS011;39153;52.680;6.172;2023-05-10T05:59:25;18.80;;;10.23;;
53263;SDS011;39153;52.680;6.172;2023-05-10T06:01:51;18.52;;;10.38;;
53263;SDS011;39153;52.680;6.172;2023-05-10T06:04:17;18.40;;;9.10;;
53263;SDS011;39153;52.680;6.172;2023-05-10T06:06:43;16.73;;;9.18;;
53263;SDS011;39153;52.680;6.172;2023-05-10T06:09:09;16.48;;;9.05;;
53263;SDS011;39153;52.680;6.172;2023-05-10T06:11:35;16.10;;;9.45;;
53263;SDS011;39153;52.680;6.172;2023-05-10T06:14:01;13.50;;;9.77;;
53263;SDS011;39153;52.680;6.172;2023-05-10T06:16:29;17.33;;;9.05;;
53263;SDS011;39153;52.680;6.172;2023-05-10T06:18:55;17.65;;;10.05;;
53263;SDS011;39153;52.680;6.172;2023-05-10T06:21:21;18.25;;;9.68;;
53263;SDS011;39153;52.680;6.172;2023-05-10T06:23:46;16.88;;;9.02;;
53263;SDS011;39153;52.680;6.172;2023-05-10T06:26:12;16.30;;;10.90;;
53263;SDS011;39153;52.680;6.172;2023-05-10T06:28:38;18.08;;;10.07;;
53263;SDS011;39153;52.680;6.172;2023-05-10T06:31:05;20.10;;;9.82;;
53263;SDS011;39153;52.680;6.172;2023-05-10T06:33:31;20.15;;;9.90;;
53263;SDS011;39153;52.680;6.172;2023-05-10T06:35:57;15.70;;;10.80;;
53263;SDS011;39153;52.680;6.172;2023-05-10T06:38:23;16.08;;;11.32;;
53263;SDS011;39153;52.680;6.172;2023-05-10T06:40:49;17.25;;;9.57;;
53263;SDS011;39153;52.680;6.172;2023-05-10T06:43:15;16.48;;;9.68;;
53263;SDS011;39153;52.680;6.172;2023-05-10T06:45:41;19.33;;;12.10;;
53263;SDS011;39153;52.680;6.172;2023-05-10T06:48:07;16.77;;;9.55;;
53263;SDS011;39153;52.680;6.172;2023-05-10T06:50:33;18.80;;;10.82;;
53263;SDS011;39153;52.680;6.172;2023-05-10T06:52:59;19.40;;;9.82;;
53263;SDS011;39153;52.680;6.172;2023-05-10T06:55:26;18.50;;;9.70;;
53263;SDS011;39153;52.680;6.172;2023-05-10T06:57:52;21.75;;;10.45;;
53263;SDS011;39153;52.680;6.172;2023-05-10T07:00:18;18.38;;;10.13;;
53263;SDS011;39153;52.680;6.172;2023-05-10T07:02:44;17.85;;;9.90;;
53263;SDS011;39153;52.680;6.172;2023-05-10T07:05:10;19.52;;;9.38;;
53263;SDS011;39153;52.680;6.172;2023-05-10T07:07:36;19.33;;;8.93;;
53263;SDS011;39153;52.680;6.172;2023-05-10T07:10:02;17.35;;;9.07;;
53263;SDS011;39153;52.680;6.172;2023-05-10T07:12:28;17.45;;;8.77;;
53263;SDS011;39153;52.680;6.172;2023-05-10T07:14:54;14.75;;;9.13;;
53263;SDS011;39153;52.680;6.172;2023-05-10T07:17:19;15.70;;;7.90;;
53263;SDS011;39153;52.680;6.172;2023-05-10T07:19:45;14.35;;;8.32;;
53263;SDS011;39153;52.680;6.172;2023-05-10T07:22:11;13.63;;;7.88;;
53263;SDS011;39153;52.680;6.172;2023-05-10T07:24:36;15.75;;;8.10;;
53263;SDS011;39153;52.680;6.172;2023-05-10T07:27:02;13.55;;;8.23;;
53263;SDS011;39153;52.680;6.172;2023-05-10T07:29:28;16.88;;;8.48;;
53263;SDS011;39153;52.680;6.172;2023-05-10T07:31:54;13.23;;;8.10;;
53263;SDS011;39153;52.680;6.172;2023-05-10T07:34:20;14.63;;;7.40;;
53263;SDS011;39153;52.680;6.172;2023-05-10T07:36:45;11.43;;;7.28;;
53263;SDS011;39153;52.680;6.172;2023-05-10T07:39:11;10.77;;;6.25;;
53263;SDS011;39153;52.680;6.172;2023-05-10T07:41:37;11.25;;;4.85;;
53263;SDS011;39153;52.680;6.172;2023-05-10T07:44:03;7.45;;;4.38;;
53263;SDS011;39153;52.680;6.172;2023-05-10T07:46:29;8.73;;;4.80;;
53263;SDS011;39153;52.680;6.172;2023-05-10T07:48:55;7.10;;;3.63;;
53263;SDS011;39153;52.680;6.172;2023-05-10T07:51:21;5.60;;;2.90;;
53263;SDS011;39153;52.680;6.172;2023-05-10T07:53:47;5.68;;;2.75;;
53263;SDS011;39153;52.680;6.172;2023-05-10T07:56:25;5.05;;;2.67;;
53263;SDS011;39153;52.680;6.172;2023-05-10T07:59:00;6.70;;;3.05;;
53263;SDS011;39153;52.680;6.172;2023-05-10T08:01:31;5.60;;;3.25;;
53263;SDS011;39153;52.680;6.172;2023-05-10T08:03:58;7.75;;;3.88;;
53263;SDS011;39153;52.680;6.172;2023-05-10T08:06:23;7.78;;;4.97;;
53263;SDS011;39153;52.680;6.172;2023-05-10T08:08:51;7.65;;;4.38;;
53263;SDS011;39153;52.680;6.172;2023-05-10T08:11:18;7.95;;;5.60;;
53263;SDS011;39153;52.680;6.172;2023-05-10T08:13:45;10.30;;;5.50;;
53263;SDS011;39153;52.680;6.172;2023-05-10T08:16:12;10.07;;;5.60;;
53263;SDS011;39153;52.680;6.172;2023-05-10T08:18:38;8.43;;;5.50;;
53263;SDS011;39153;52.680;6.172;2023-05-10T08:21:04;8.07;;;5.50;;
53263;SDS011;39153;52.680;6.172;2023-05-10T08:23:31;9.52;;;5.88;;
53263;SDS011;39153;52.680;6.172;2023-05-10T08:25:56;8.35;;;5.28;;
53263;SDS011;39153;52.680;6.172;2023-05-10T08:28:22;10.00;;;6.25;;
53263;SDS011;39153;52.680;6.172;2023-05-10T08:30:49;8.20;;;6.00;;
53263;SDS011;39153;52.680;6.172;2023-05-10T08:33:15;9.07;;;5.78;;
53263;SDS011;39153;52.680;6.172;2023-05-10T08:35:40;8.18;;;5.63;;
53263;SDS011;39153;52.680;6.172;2023-05-10T08:38:06;9.73;;;6.38;;
53263;SDS011;39153;52.680;6.172;2023-05-10T08:40:32;9.20;;;6.40;;
53263;SDS011;39153;52.680;6.172;2023-05-10T08:43:04;9.00;;;5.80;;
53263;SDS011;39153;52.680;6.172;2023-05-10T08:45:38;7.53;;;5.65;;
53263;SDS011;39153;52.680;6.172;2023-05-10T08:48:05;8.93;;;6.07;;
53263;SDS011;39153;52.680;6.172;2023-05-10T08:50:33;7.22;;;5.28;;
53263;SDS011;39153;52.680;6.172;2023-05-10T08:53:02;7.97;;;5.80;;
53263;SDS011;39153;52.680;6.172;2023-05-10T08:55:30;8.35;;;5.72;;
53263;SDS011;39153;52.680;6.172;2023-05-10T08:57:58;8.88;;;5.80;;
53263;SDS011;39153;52.680;6.172;2023-05-10T09:00:28;8.98;;;5.88;;
53263;SDS011;39153;52.680;6.172;2023-05-10T09:02:54;9.80;;;6.45;;
53263;SDS011;39153;52.680;6.172;2023-05-10T09:05:20;8.40;;;6.57;;
53263;SDS011;39153;52.680;6.172;2023-05-10T09:07:46;10.68;;;7.05;;
53263;SDS011;39153;52.680;6.172;2023-05-10T09:10:12;15.43;;;9.73;;
53263;SDS011;39153;52.680;6.172;2023-05-10T09:12:40;14.35;;;9.95;;
53263;SDS011;39153;52.680;6.172;2023-05-10T09:15:06;15.05;;;9.73;;
53263;SDS011;39153;52.680;6.172;2023-05-10T09:17:33;11.48;;;9.32;;
53263;SDS011;39153;52.680;6.172;2023-05-10T09:20:00;12.00;;;8.73;;
53263;SDS011;39153;52.680;6.172;2023-05-10T09:22:27;12.30;;;8.88;;
53263;SDS011;39153;52.680;6.172;2023-05-10T09:27:39;13.00;;;9.00;;
53263;SDS011;39153;52.680;6.172;2023-05-10T09:30:05;13.57;;;9.57;;
53263;SDS011;39153;52.680;6.172;2023-05-10T09:32:39;12.13;;;9.32;;
53263;SDS011;39153;52.680;6.172;2023-05-10T09:35:08;13.38;;;8.32;;
53263;SDS011;39153;52.680;6.172;2023-05-10T09:37:39;11.82;;;8.32;;
53263;SDS011;39153;52.680;6.172;2023-05-10T09:40:11;10.60;;;8.55;;
53263;SDS011;39153;52.680;6.172;2023-05-10T09:42:38;11.70;;;8.43;;
53263;SDS011;39153;52.680;6.172;2023-05-10T09:45:04;13.00;;;8.70;;
53263;SDS011;39153;52.680;6.172;2023-05-10T09:47:36;15.07;;;9.80;;
53263;SDS011;39153;52.680;6.172;2023-05-10T09:50:02;13.13;;;9.02;;
53263;SDS011;39153;52.680;6.172;2023-05-10T09:55:25;12.20;;;9.13;;
53263;SDS011;39153;52.680;6.172;2023-05-10T09:58:03;13.23;;;9.45;;
53263;SDS011;39153;52.680;6.172;2023-05-10T10:00:34;13.55;;;9.30;;
53263;SDS011;39153;52.680;6.172;2023-05-10T10:03:14;13.48;;;9.43;;
53263;SDS011;39153;52.680;6.172;2023-05-10T10:05:41;14.45;;;10.05;;
53263;SDS011;39153;52.680;6.172;2023-05-10T10:08:08;14.70;;;10.80;;
53263;SDS011;39153;52.680;6.172;2023-05-10T10:10:34;14.05;;;10.20;;
53263;SDS011;39153;52.680;6.172;2023-05-10T10:13:00;15.15;;;10.55;;
53263;SDS011;39153;52.680;6.172;2023-05-10T10:15:27;14.05;;;10.93;;
53263;SDS011;39153;52.680;6.172;2023-05-10T10:17:52;14.30;;;10.93;;
53263;SDS011;39153;52.680;6.172;2023-05-10T10:20:19;16.55;;;11.05;;
53263;SDS011;39153;52.680;6.172;2023-05-10T10:22:47;16.17;;;11.20;;
53263;SDS011;39153;52.680;6.172;2023-05-10T10:25:17;15.40;;;11.10;;
53263;SDS011;39153;52.680;6.172;2023-05-10T10:35:31;15.25;;;11.43;;
53263;SDS011;39153;52.680;6.172;2023-05-10T10:37:57;13.65;;;10.45;;
53263;SDS011;39153;52.680;6.172;2023-05-10T10:40:24;16.30;;;10.48;;
53263;SDS011;39153;52.680;6.172;2023-05-10T10:42:50;13.00;;;9.38;;
53263;SDS011;39153;52.680;6.172;2023-05-10T10:45:16;12.68;;;10.35;;
53263;SDS011;39153;52.680;6.172;2023-05-10T10:47:42;11.43;;;9.55;;
53263;SDS011;39153;52.680;6.172;2023-05-10T10:50:10;14.25;;;10.25;;
53263;SDS011;39153;52.680;6.172;2023-05-10T10:52:40;14.32;;;11.10;;
53263;SDS011;39153;52.680;6.172;2023-05-10T11:03:06;14.18;;;11.27;;
53263;SDS011;39153;52.680;6.172;2023-05-10T11:08:19;14.77;;;11.65;;
53263;SDS011;39153;52.680;6.172;2023-05-10T11:11:14;15.80;;;12.75;;
53263;SDS011;39153;52.680;6.172;2023-05-10T11:16:13;15.20;;;11.45;;
53263;SDS011;39153;52.680;6.172;2023-05-10T11:18:39;14.65;;;11.70;;
53263;SDS011;39153;52.680;6.172;2023-05-10T11:21:07;12.25;;;10.88;;
53263;SDS011;39153;52.680;6.172;2023-05-10T11:26:10;15.20;;;11.95;;
53263;SDS011;39153;52.680;6.172;2023-05-10T11:28:43;13.90;;;11.07;;
53263;SDS011;39153;52.680;6.172;2023-05-10T11:31:10;13.00;;;10.10;;
53263;SDS011;39153;52.680;6.172;2023-05-10T11:36:15;12.93;;;10.30;;
53263;SDS011;39153;52.680;6.172;2023-05-10T11:38:43;12.40;;;9.45;;
53263;SDS011;39153;52.680;6.172;2023-05-10T11:41:09;13.55;;;10.10;;
53263;SDS011;39153;52.680;6.172;2023-05-10T11:43:36;14.25;;;10.18;;
53263;SDS011;39153;52.680;6.172;2023-05-10T11:46:04;12.95;;;9.80;;
53263;SDS011;39153;52.680;6.172;2023-05-10T11:48:35;11.32;;;9.02;;
53263;SDS011;39153;52.680;6.172;2023-05-10T11:51:01;11.18;;;9.18;;
53263;SDS011;39153;52.680;6.172;2023-05-10T11:53:31;13.48;;;10.20;;
53263;SDS011;39153;52.680;6.172;2023-05-10T11:56:07;11.70;;;9.80;;
53263;SDS011;39153;52.680;6.172;2023-05-10T11:58:34;13.38;;;9.95;;
53263;SDS011;39153;52.680;6.172;2023-05-10T12:01:02;14.15;;;9.75;;
53263;SDS011;39153;52.680;6.172;2023-05-10T12:03:29;11.98;;;9.52;;
53263;SDS011;39153;52.680;6.172;2023-05-10T12:05:55;12.43;;;9.90;;
53263;SDS011;39153;52.680;6.172;2023-05-10T12:08:25;12.32;;;9.50;;
53263;SDS011;39153;52.680;6.172;2023-05-10T12:10:53;12.52;;;9.27;;
53263;SDS011;39153;52.680;6.172;2023-05-10T12:13:28;11.10;;;8.85;;
53263;SDS011;39153;52.680;6.172;2023-05-10T12:15:57;13.10;;;9.50;;
53263;SDS011;39153;52.680;6.172;2023-05-10T12:18:23;12.25;;;8.90;;
53263;SDS011;39153;52.680;6.172;2023-05-10T12:20:53;11.30;;;8.82;;
53263;SDS011;39153;52.680;6.172;2023-05-10T12:23:19;12.48;;;9.40;;
53263;SDS011;39153;52.680;6.172;2023-05-10T12:25:45;12.30;;;8.90;;
53263;SDS011;39153;52.680;6.172;2023-05-10T12:28:11;11.15;;;9.18;;
53263;SDS011;39153;52.680;6.172;2023-05-10T12:30:37;11.48;;;8.75;;
53263;SDS011;39153;52.680;6.172;2023-05-10T12:35:42;10.27;;;8.15;;
53263;SDS011;39153;52.680;6.172;2023-05-10T12:41:07;11.32;;;8.27;;
53263;SDS011;39153;52.680;6.172;2023-05-10T12:46:04;10.50;;;8.90;;
53263;SDS011;39153;52.680;6.172;2023-05-10T12:48:35;13.45;;;9.90;;
53263;SDS011;39153;52.680;6.172;2023-05-10T12:51:02;12.35;;;10.10;;
53263;SDS011;39153;52.680;6.172;2023-05-10T12:53:28;12.70;;;10.88;;
53263;SDS011;39153;52.680;6.172;2023-05-10T12:55:54;12.38;;;10.48;;
53263;SDS011;39153;52.680;6.172;2023-05-10T12:58:20;12.00;;;9.60;;
53263;SDS011;39153;52.680;6.172;2023-05-10T13:00:46;12.80;;;10.07;;
53263;SDS011;39153;52.680;6.172;2023-05-10T13:03:12;12.52;;;9.73;;
53263;SDS011;39153;52.680;6.172;2023-05-10T13:05:37;14.50;;;9.77;;
53263;SDS011;39153;52.680;6.172;2023-05-10T13:08:03;12.38;;;9.40;;
53263;SDS011;39153;52.680;6.172;2023-05-10T13:10:30;15.38;;;10.68;;
53263;SDS011;39153;52.680;6.172;2023-05-10T13:12:56;14.15;;;9.88;;
53263;SDS011;39153;52.680;6.172;2023-05-10T13:15:23;13.52;;;9.57;;
53263;SDS011;39153;52.680;6.172;2023-05-10T13:17:49;12.23;;;8.88;;
53263;SDS011;39153;52.680;6.172;2023-05-10T13:20:15;14.05;;;9.35;;
53263;SDS011;39153;52.680;6.172;2023-05-10T13:22:41;13.00;;;9.48;;
53263;SDS011;39153;52.680;6.172;2023-05-10T13:25:08;13.73;;;9.15;;
53263;SDS011;39153;52.680;6.172;2023-05-10T13:27:34;12.00;;;8.70;;
53263;SDS011;39153;52.680;6.172;2023-05-10T13:29:59;13.52;;;8.73;;
53263;SDS011;39153;52.680;6.172;2023-05-10T13:32:26;11.77;;;8.60;;
53263;SDS011;39153;52.680;6.172;2023-05-10T13:34:51;12.93;;;8.75;;
53263;SDS011;39153;52.680;6.172;2023-05-10T13:37:17;13.45;;;9.30;;
53263;SDS011;39153;52.680;6.172;2023-05-10T13:39:43;15.07;;;11.02;;
53263;SDS011;39153;52.680;6.172;2023-05-10T13:42:08;13.52;;;9.73;;
53263;SDS011;39153;52.680;6.172;2023-05-10T13:44:34;13.63;;;10.15;;
53263;SDS011;39153;52.680;6.172;2023-05-10T13:47:01;13.15;;;10.40;;
53263;SDS011;39153;52.680;6.172;2023-05-10T13:49:26;14.35;;;10.77;;
53263;SDS011;39153;52.680;6.172;2023-05-10T13:51:52;14.73;;;10.93;;
53263;SDS011;39153;52.680;6.172;2023-05-10T13:54:18;14.13;;;10.23;;
53263;SDS011;39153;52.680;6.172;2023-05-10T13:56:45;13.57;;;10.52;;
53263;SDS011;39153;52.680;6.172;2023-05-10T13:59:12;13.45;;;9.65;;
53263;SDS011;39153;52.680;6.172;2023-05-10T14:01:39;10.35;;;7.53;;
53263;SDS011;39153;52.680;6.172;2023-05-10T14:04:05;11.77;;;8.27;;
53263;SDS011;39153;52.680;6.172;2023-05-10T14:06:33;10.80;;;8.05;;
53263;SDS011;39153;52.680;6.172;2023-05-10T14:08:59;12.73;;;8.90;;
53263;SDS011;39153;52.680;6.172;2023-05-10T14:11:24;11.38;;;8.02;;
53263;SDS011;39153;52.680;6.172;2023-05-10T14:13:50;10.63;;;8.18;;
53263;SDS011;39153;52.680;6.172;2023-05-10T14:16:16;11.02;;;7.75;;
53263;SDS011;39153;52.680;6.172;2023-05-10T14:18:41;10.07;;;6.97;;
53263;SDS011;39153;52.680;6.172;2023-05-10T14:21:07;10.60;;;7.03;;
53263;SDS011;39153;52.680;6.172;2023-05-10T14:23:33;8.77;;;6.50;;
53263;SDS011;39153;52.680;6.172;2023-05-10T14:25:58;9.25;;;7.05;;
53263;SDS011;39153;52.680;6.172;2023-05-10T14:28:24;12.27;;;6.75;;
53263;SDS011;39153;52.680;6.172;2023-05-10T14:30:50;8.32;;;5.32;;
53263;SDS011;39153;52.680;6.172;2023-05-10T14:33:16;7.28;;;4.68;;
53263;SDS011;39153;52.680;6.172;2023-05-10T14:35:42;7.95;;;4.50;;
53263;SDS011;39153;52.680;6.172;2023-05-10T14:38:08;9.45;;;4.07;;
53263;SDS011;39153;52.680;6.172;2023-05-10T14:40:33;7.13;;;4.88;;
53263;SDS011;39153;52.680;6.172;2023-05-10T14:42:59;8.45;;;4.80;;
53263;SDS011;39153;52.680;6.172;2023-05-10T14:45:25;9.23;;;4.35;;
53263;SDS011;39153;52.680;6.172;2023-05-10T14:47:51;4.82;;;3.20;;
53263;SDS011;39153;52.680;6.172;2023-05-10T14:50:17;7.45;;;4.03;;
53263;SDS011;39153;52.680;6.172;2023-05-10T14:52:43;9.18;;;3.70;;
53263;SDS011;39153;52.680;6.172;2023-05-10T14:55:09;7.43;;;4.13;;
53263;SDS011;39153;52.680;6.172;2023-05-10T14:57:35;8.82;;;5.18;;
53263;SDS011;39153;52.680;6.172;2023-05-10T15:00:01;8.05;;;5.13;;
53263;SDS011;39153;52.680;6.172;2023-05-10T15:02:27;7.68;;;4.80;;
53263;SDS011;39153;52.680;6.172;2023-05-10T15:04:53;9.32;;;5.57;;
53263;SDS011;39153;52.680;6.172;2023-05-10T15:07:18;8.68;;;5.28;;
53263;SDS011;39153;52.680;6.172;2023-05-10T15:09:44;7.35;;;4.82;;
53263;SDS011;39153;52.680;6.172;2023-05-10T15:12:10;8.00;;;4.57;;
53263;SDS011;39153;52.680;6.172;2023-05-10T15:14:36;7.97;;;4.70;;
53263;SDS011;39153;52.680;6.172;2023-05-10T15:17:02;7.32;;;5.25;;
53263;SDS011;39153;52.680;6.172;2023-05-10T15:19:28;7.18;;;4.43;;
53263;SDS011;39153;52.680;6.172;2023-05-10T15:21:54;7.18;;;5.03;;
53263;SDS011;39153;52.680;6.172;2023-05-10T15:24:20;7.85;;;4.90;;
53263;SDS011;39153;52.680;6.172;2023-05-10T15:26:46;7.82;;;4.28;;
53263;SDS011;39153;52.680;6.172;2023-05-10T15:29:12;7.95;;;4.38;;
53263;SDS011;39153;52.680;6.172;2023-05-10T15:31:44;7.88;;;4.20;;
53263;SDS011;39153;52.680;6.172;2023-05-10T15:34:11;8.60;;;4.82;;
53263;SDS011;39153;52.680;6.172;2023-05-10T15:36:37;7.75;;;4.60;;
53263;SDS011;39153;52.680;6.172;2023-05-10T15:39:03;5.28;;;3.22;;